Time;durP1;ratioP1;P1;durP2;ratioP2;P2;SDS_P1;SDS_P2;PMS_P1;PMS_P2;Temp;Humidity;BMP_temperature;BMP_pressure;BME280_temperature;BME280_humidity;BME280_pressure;Samples;Min_cycle;Max_cycle;Signal;HPM_P1;HPM_P2
2023/06/08 00:00:20;;;;;;;15.03;7.93;;;18.80;1.00;;;;;;5058667;28;20193;-80
2023/06/08 00:02:46;;;;;;;12.20;7.70;;;18.80;1.00;;;;;;5057526;28;20272;-82
2023/06/08 00:05:16;;;;;;;11.83;7.80;;;18.70;1.00;;;;;;5056107;28;20159;-81
2023/06/08 00:07:42;;;;;;;15.07;8.90;;;18.60;1.00;;;;;;5056968;28;20167;-80
2023/06/08 00:10:09;;;;;;;11.03;8.07;;;18.60;1.00;;;;;;5055016;28;20170;-79
2023/06/08 00:12:36;;;;;;;11.37;7.77;;;18.50;1.00;;;;;;5055031;28;20196;-81
2023/06/08 00:15:03;;;;;;;13.07;7.90;;;18.40;1.00;;;;;;5055120;28;20220;-81
2023/06/08 00:17:31;;;;;;;13.63;7.97;;;18.40;1.00;;;;;;5054860;28;20173;-79
2023/06/08 00:19:56;;;;;;;14.93;8.40;;;18.30;1.00;;;;;;5039383;28;20229;-84
2023/06/08 00:22:22;;;;;;;15.20;9.00;;;18.20;1.00;;;;;;5054457;28;20298;-81
2023/06/08 00:24:48;;;;;;;13.90;8.70;;;18.10;1.00;;;;;;5035679;28;20173;-82
2023/06/08 00:27:14;;;;;;;14.13;8.60;;;18.10;1.00;;;;;;5054134;28;20178;-81
2023/06/08 00:29:40;;;;;;;12.93;8.40;;;18.10;1.00;;;;;;5053844;28;20166;-82
2023/06/08 00:32:06;;;;;;;14.70;9.10;;;18.10;1.00;;;;;;5054757;28;20256;-81
2023/06/08 00:34:31;;;;;;;13.07;8.50;;;18.10;1.00;;;;;;5054812;28;20242;-82
2023/06/08 00:36:57;;;;;;;11.47;8.03;;;18.00;1.00;;;;;;5054205;28;20173;-80
2023/06/08 00:39:23;;;;;;;15.23;8.87;;;17.90;1.00;;;;;;5068790;28;20199;-78
2023/06/08 00:41:48;;;;;;;13.37;8.80;;;17.90;1.00;;;;;;5059372;28;20252;-81
2023/06/08 00:44:14;;;;;;;13.47;8.63;;;17.90;1.00;;;;;;5075301;28;20158;-78
2023/06/08 00:46:41;;;;;;;12.63;8.33;;;17.90;1.00;;;;;;5059663;28;20230;-80
2023/06/08 00:49:11;;;;;;;14.23;8.67;;;17.80;1.00;;;;;;5064278;28;20184;-81
2023/06/08 00:51:41;;;;;;;15.80;9.00;;;17.80;1.00;;;;;;5059304;28;20153;-81
2023/06/08 00:54:12;;;;;;;16.53;9.77;;;17.90;1.00;;;;;;5063724;28;20183;-80
2023/06/08 00:56:42;;;;;;;12.20;8.80;;;17.80;1.00;;;;;;5061165;28;20157;-80
2023/06/08 00:59:10;;;;;;;13.13;9.07;;;17.80;1.00;;;;;;5060089;28;20196;-81
2023/06/08 01:01:38;;;;;;;15.23;8.63;;;17.70;1.00;;;;;;5059097;28;20173;-80
2023/06/08 01:04:06;;;;;;;15.00;9.27;;;17.60;1.00;;;;;;5058429;28;20297;-81
2023/06/08 01:06:35;;;;;;;14.40;8.97;;;17.60;1.00;;;;;;5053644;28;20226;-81
2023/06/08 01:09:27;;;;;;;13.90;9.17;;;17.60;1.00;;;;;;5052682;28;20172;-82
2023/06/08 01:12:07;;;;;;;16.80;9.20;;;17.60;1.00;;;;;;5046409;28;20201;-81
2023/06/08 01:14:44;;;;;;;18.27;9.90;;;17.60;1.00;;;;;;5052855;28;20171;-80
2023/06/08 01:17:14;;;;;;;14.07;9.80;;;17.50;1.00;;;;;;5052800;28;20193;-82
2023/06/08 01:20:08;;;;;;;16.20;8.93;;;17.50;1.20;;;;;;5053649;28;20192;-81
2023/06/08 01:22:46;;;;;;;13.23;8.97;;;17.50;1.30;;;;;;5053265;28;20214;-81
2023/06/08 01:25:14;;;;;;;12.93;9.57;;;17.40;3.80;;;;;;5053258;28;20165;-81
2023/06/08 01:27:40;;;;;;;14.70;10.03;;;17.40;3.50;;;;;;5052705;28;20173;-81
2023/06/08 01:30:06;;;;;;;13.40;9.17;;;17.50;3.50;;;;;;5052728;28;20177;-81
2023/06/08 01:32:33;;;;;;;15.20;9.87;;;17.30;5.00;;;;;;5053174;28;20347;-80
2023/06/08 01:34:59;;;;;;;14.43;9.50;;;17.30;5.40;;;;;;5034023;28;20204;-80
2023/06/08 01:37:43;;;;;;;14.07;9.60;;;17.30;6.20;;;;;;5052836;28;20227;-82
2023/06/08 01:40:25;;;;;;;13.47;10.17;;;17.30;6.20;;;;;;5052612;28;20169;-80
2023/06/08 01:42:52;;;;;;;15.90;10.70;;;17.20;8.80;;;;;;5052819;28;20200;-82
2023/06/08 01:45:23;;;;;;;16.43;9.53;;;17.20;8.60;;;;;;5052660;28;20161;-81
2023/06/08 01:48:01;;;;;;;16.23;9.30;;;17.20;10.00;;;;;;5034641;28;20181;-80
2023/06/08 01:50:28;;;;;;;16.27;9.90;;;17.10;9.50;;;;;;5053324;28;20223;-82
2023/06/08 01:52:55;;;;;;;14.30;10.10;;;17.10;10.40;;;;;;5053077;28;20234;-81
2023/06/08 01:55:22;;;;;;;15.93;9.87;;;17.00;10.80;;;;;;5052817;28;20172;-82
2023/06/08 01:57:48;;;;;;;13.63;10.07;;;17.00;10.40;;;;;;5052310;28;20164;-81
2023/06/08 02:00:18;;;;;;;15.97;9.70;;;17.00;9.90;;;;;;5035204;28;20200;-80
2023/06/08 02:02:44;;;;;;;14.60;10.80;;;16.90;11.60;;;;;;5052823;28;20208;-80
2023/06/08 02:05:11;;;;;;;18.50;10.53;;;16.90;13.50;;;;;;5052908;28;20161;-82
2023/06/08 02:07:41;;;;;;;14.30;9.77;;;16.90;14.10;;;;;;5052858;28;20226;-80
2023/06/08 02:10:08;;;;;;;14.63;9.27;;;16.80;13.70;;;;;;5053206;28;20252;-81
2023/06/08 02:12:34;;;;;;;16.33;10.70;;;16.80;15.10;;;;;;5075269;28;20163;-80
2023/06/08 02:15:00;;;;;;;13.50;9.63;;;16.80;14.00;;;;;;5080939;28;20164;-79
2023/06/08 02:17:27;;;;;;;16.77;9.93;;;16.80;12.00;;;;;;5045424;28;20208;-81
2023/06/08 02:19:53;;;;;;;15.67;9.87;;;16.80;12.10;;;;;;5059327;28;20161;-81
2023/06/08 02:22:20;;;;;;;17.80;9.73;;;16.70;11.00;;;;;;5057465;28;20209;-82
2023/06/08 02:24:46;;;;;;;13.70;10.23;;;16.80;12.70;;;;;;5057310;28;20166;-81
2023/06/08 02:27:28;;;;;;;19.43;10.00;;;16.80;9.90;;;;;;5057466;28;20154;-84
2023/06/08 02:29:55;;;;;;;16.33;9.90;;;16.80;9.80;;;;;;5057051;28;20226;-82
2023/06/08 02:32:21;;;;;;;12.67;9.73;;;16.70;7.00;;;;;;5056590;28;20196;-80
2023/06/08 02:34:53;;;;;;;16.63;9.37;;;16.70;9.20;;;;;;5056335;28;20697;-81
2023/06/08 02:37:19;;;;;;;17.80;9.93;;;16.70;9.30;;;;;;5038390;28;20176;-82
2023/06/08 02:39:45;;;;;;;15.97;9.87;;;16.70;8.90;;;;;;5057176;28;20735;-83
2023/06/08 02:42:11;;;;;;;14.27;9.37;;;16.70;6.90;;;;;;5058905;28;20296;-81
2023/06/08 02:44:37;;;;;;;13.47;9.43;;;16.60;10.70;;;;;;5078580;28;20229;-79
2023/06/08 02:47:03;;;;;;;15.77;9.93;;;16.60;9.40;;;;;;5080496;28;20177;-81
2023/06/08 02:49:29;;;;;;;18.00;10.20;;;16.50;11.50;;;;;;5072700;28;20161;-80
2023/06/08 02:51:55;;;;;;;17.13;10.13;;;16.50;13.50;;;;;;5057877;28;20232;-80
2023/06/08 02:54:20;;;;;;;18.30;10.60;;;16.40;15.90;;;;;;5057781;28;20180;-82
2023/06/08 02:56:53;;;;;;;13.40;9.10;;;16.40;13.90;;;;;;5056851;28;20170;-78
2023/06/08 02:59:24;;;;;;;16.27;10.50;;;16.40;13.70;;;;;;5056887;28;20228;-80
2023/06/08 03:01:53;;;;;;;13.93;9.73;;;16.40;17.20;;;;;;5055762;28;20275;-81
2023/06/08 03:04:22;;;;;;;17.53;10.73;;;16.30;17.50;;;;;;5038800;28;20185;-79
2023/06/08 03:06:53;;;;;;;14.80;10.97;;;16.20;18.00;;;;;;5056810;28;20193;-79
2023/06/08 03:09:24;;;;;;;15.50;9.73;;;16.20;19.80;;;;;;5056495;28;20169;-80
2023/06/08 03:11:50;;;;;;;19.20;10.97;;;16.10;21.70;;;;;;5056096;28;20271;-81
2023/06/08 03:14:19;;;;;;;16.60;10.23;;;16.10;22.70;;;;;;5056321;28;20172;-80
2023/06/08 03:16:48;;;;;;;16.40;10.03;;;16.10;23.30;;;;;;5055395;28;20219;-80
2023/06/08 03:19:15;;;;;;;16.63;10.60;;;16.10;22.30;;;;;;5038523;28;20643;-82
2023/06/08 03:21:41;;;;;;;16.77;10.27;;;16.10;23.40;;;;;;5055689;28;20188;-81
2023/06/08 03:24:31;;;;;;;15.37;10.67;;;16.00;24.50;;;;;;5056665;28;20235;-80
2023/06/08 03:27:00;;;;;;;14.57;10.43;;;16.00;26.30;;;;;;5055919;28;20179;-80
2023/06/08 03:29:26;;;;;;;18.67;11.03;;;16.00;25.00;;;;;;5056400;28;20165;-82
2023/06/08 03:31:52;;;;;;;18.13;11.50;;;16.00;25.20;;;;;;5056374;28;20169;-81
2023/06/08 03:34:19;;;;;;;15.67;11.03;;;16.00;26.50;;;;;;5055234;28;20219;-81
2023/06/08 03:36:45;;;;;;;15.10;11.37;;;15.90;28.80;;;;;;5037928;28;20232;-82
2023/06/08 03:39:11;;;;;;;17.37;11.17;;;15.90;29.30;;;;;;5055851;28;20180;-82
2023/06/08 03:41:37;;;;;;;16.43;12.00;;;15.80;29.40;;;;;;5056072;28;20573;-81
2023/06/08 03:44:03;;;;;;;18.87;11.83;;;15.80;33.20;;;;;;5056083;28;20207;-80
2023/06/08 03:46:28;;;;;;;17.17;12.33;;;15.70;33.50;;;;;;5056172;28;20172;-80
2023/06/08 03:48:54;;;;;;;15.50;12.27;;;15.70;37.10;;;;;;5055405;28;20169;-80
2023/06/08 03:51:21;;;;;;;17.00;11.80;;;15.70;37.30;;;;;;5055316;28;20663;-80
2023/06/08 03:53:48;;;;;;;18.10;11.20;;;15.70;37.80;;;;;;5055653;28;20173;-82
2023/06/08 03:56:14;;;;;;;17.83;11.97;;;15.70;37.30;;;;;;5057105;28;20215;-79
2023/06/08 03:58:41;;;;;;;17.63;11.80;;;15.70;39.50;;;;;;5056757;28;20176;-78
2023/06/08 04:01:14;;;;;;;17.53;11.60;;;15.70;39.50;;;;;;5055255;28;20690;-79
2023/06/08 04:03:41;;;;;;;17.50;11.93;;;15.60;39.50;;;;;;5036248;28;20208;-81
2023/06/08 04:06:08;;;;;;;17.93;12.47;;;15.70;42.20;;;;;;5036979;28;20532;-81
2023/06/08 04:08:40;;;;;;;20.40;11.70;;;15.60;43.90;;;;;;5054759;28;20192;-81
2023/06/08 04:11:09;;;;;;;17.83;11.03;;;15.50;44.80;;;;;;5056083;28;20536;-81
2023/06/08 04:13:36;;;;;;;21.33;11.83;;;15.50;44.30;;;;;;5053979;28;20227;-81
2023/06/08 04:16:09;;;;;;;23.67;13.07;;;15.60;43.50;;;;;;5037365;28;20575;-78
2023/06/08 04:18:36;;;;;;;19.80;12.27;;;15.60;43.50;;;;;;5054151;28;20168;-79
2023/06/08 04:21:04;;;;;;;18.37;11.93;;;15.60;40.10;;;;;;5054863;28;20179;-80
2023/06/08 04:23:30;;;;;;;20.87;12.03;;;15.60;43.00;;;;;;5053997;28;20209;-80
2023/06/08 04:25:56;;;;;;;19.03;12.20;;;15.60;43.00;;;;;;5055341;28;20168;-80
2023/06/08 04:28:21;;;;;;;20.07;12.47;;;15.70;41.80;;;;;;5057750;28;20174;-78
2023/06/08 04:30:48;;;;;;;19.83;11.97;;;15.80;37.40;;;;;;5075473;28;20161;-80
2023/06/08 04:33:15;;;;;;;18.30;11.60;;;15.80;35.80;;;;;;5073293;28;20165;-79
2023/06/08 04:35:41;;;;;;;20.03;12.57;;;15.70;37.50;;;;;;5076808;28;20189;-81
2023/06/08 04:38:14;;;;;;;18.13;12.50;;;15.80;34.00;;;;;;5069745;28;20169;-80
2023/06/08 04:40:46;;;;;;;18.70;12.10;;;15.90;36.50;;;;;;5057003;28;20204;-81
2023/06/08 04:43:13;;;;;;;16.97;11.53;;;15.80;34.10;;;;;;5055790;28;20850;-80
2023/06/08 04:45:43;;;;;;;22.40;12.10;;;15.90;33.50;;;;;;5036039;28;20173;-79
2023/06/08 04:48:09;;;;;;;20.23;12.87;;;15.90;31.50;;;;;;5055220;28;20218;-81
2023/06/08 04:50:35;;;;;;;19.37;12.83;;;15.90;29.40;;;;;;5054076;28;20165;-78
2023/06/08 04:53:01;;;;;;;22.30;11.50;;;16.00;29.90;;;;;;5053561;28;20667;-79
2023/06/08 04:55:27;;;;;;;20.03;11.70;;;16.00;26.50;;;;;;5053627;28;20165;-81
2023/06/08 04:57:53;;;;;;;19.00;11.90;;;16.10;22.90;;;;;;5053212;28;20172;-79
2023/06/08 05:00:19;;;;;;;17.33;12.40;;;16.00;24.20;;;;;;5053696;28;20197;-81
2023/06/08 05:02:44;;;;;;;17.70;11.57;;;15.90;27.70;;;;;;5053406;28;20200;-79
2023/06/08 05:05:12;;;;;;;17.47;12.00;;;16.00;24.80;;;;;;5053041;28;20250;-79
2023/06/08 05:07:38;;;;;;;22.10;12.50;;;16.00;24.20;;;;;;5035929;28;20250;-81
2023/06/08 05:10:04;;;;;;;19.53;12.47;;;15.80;28.20;;;;;;5036032;28;20208;-79
2023/06/08 05:12:30;;;;;;;18.73;12.40;;;15.80;29.00;;;;;;5054109;28;20164;-81
2023/06/08 05:14:56;;;;;;;23.23;12.70;;;15.80;29.20;;;;;;5053847;28;20175;-81
2023/06/08 05:17:22;;;;;;;16.93;12.17;;;15.70;32.00;;;;;;5053468;28;20173;-81
2023/06/08 05:19:50;;;;;;;18.70;12.13;;;15.70;33.40;;;;;;5053652;28;20174;-79
2023/06/08 05:22:15;;;;;;;20.50;13.63;;;15.80;29.30;;;;;;5052281;28;20232;-80
2023/06/08 05:24:41;;;;;;;20.23;13.10;;;15.70;32.80;;;;;;5053196;28;20212;-78
2023/06/08 05:27:07;;;;;;;20.03;12.97;;;15.70;31.90;;;;;;5053843;28;20169;-82
2023/06/08 05:29:33;;;;;;;20.03;13.57;;;15.70;30.90;;;;;;5053028;28;20180;-80
2023/06/08 05:32:00;;;;;;;23.70;13.17;;;15.70;34.80;;;;;;5052786;28;20181;-81
2023/06/08 05:34:25;;;;;;;19.33;13.30;;;15.80;33.50;;;;;;5052996;28;20235;-80
2023/06/08 05:36:51;;;;;;;19.03;12.87;;;15.80;31.20;;;;;;5035587;28;20578;-82
2023/06/08 05:39:17;;;;;;;20.83;14.00;;;15.90;29.00;;;;;;5053038;28;20177;-82
2023/06/08 05:41:43;;;;;;;21.33;13.87;;;15.90;27.10;;;;;;5053421;28;20254;-83
2023/06/08 05:44:08;;;;;;;22.17;12.90;;;16.00;23.70;;;;;;5053046;28;20607;-80
2023/06/08 05:46:34;;;;;;;25.37;13.90;;;15.90;25.70;;;;;;5052707;28;20176;-79
2023/06/08 05:49:00;;;;;;;19.67;13.03;;;15.90;27.00;;;;;;5052718;28;20620;-82
2023/06/08 05:51:25;;;;;;;19.90;12.20;;;16.00;26.00;;;;;;5053041;28;20215;-84
2023/06/08 05:53:52;;;;;;;19.67;13.47;;;16.00;24.70;;;;;;5053618;28;20311;-85
2023/06/08 05:56:18;;;;;;;25.77;14.13;;;16.00;22.70;;;;;;5053861;28;20177;-84
2023/06/08 05:58:43;;;;;;;23.90;14.17;;;16.00;21.60;;;;;;5035668;28;20180;-83
2023/06/08 06:01:09;;;;;;;20.23;14.03;;;16.00;22.10;;;;;;5035507;28;20190;-80
2023/06/08 06:03:35;;;;;;;19.87;13.70;;;16.10;19.60;;;;;;5053763;28;20725;-84
2023/06/08 06:06:01;;;;;;;20.37;13.60;;;16.10;18.60;;;;;;5037169;28;20157;-80
2023/06/08 06:08:27;;;;;;;19.07;14.13;;;16.20;17.70;;;;;;5055679;28;20671;-79
2023/06/08 06:10:52;;;;;;;21.37;14.00;;;16.10;17.60;;;;;;5055706;28;20193;-84
2023/06/08 06:13:21;;;;;;;21.93;14.27;;;16.20;15.40;;;;;;5054573;28;20252;-83
2023/06/08 06:15:47;;;;;;;21.17;12.80;;;16.30;13.60;;;;;;5035064;28;20184;-85
2023/06/08 06:18:13;;;;;;;19.30;14.10;;;16.40;12.60;;;;;;5036374;28;20528;-83
2023/06/08 06:20:39;;;;;;;21.30;13.47;;;16.50;8.90;;;;;;5054571;28;20188;-81
2023/06/08 06:23:04;;;;;;;23.07;14.40;;;16.60;4.10;;;;;;5035944;28;20214;-80
2023/06/08 06:25:30;;;;;;;26.50;13.90;;;16.70;1.70;;;;;;5055507;28;20173;-79
2023/06/08 06:27:56;;;;;;;17.87;12.87;;;16.60;1.00;;;;;;5055839;28;20169;-84
2023/06/08 06:30:21;;;;;;;22.20;13.53;;;16.50;5.40;;;;;;5055107;28;20552;-86
2023/06/08 06:32:47;;;;;;;21.50;13.33;;;16.60;1.10;;;;;;5037898;28;20218;-82
2023/06/08 06:35:13;;;;;;;24.97;14.47;;;16.80;1.00;;;;;;5036501;28;20179;-83
2023/06/08 06:37:39;;;;;;;24.10;13.30;;;16.90;1.00;;;;;;5053393;28;20157;-84
2023/06/08 06:40:06;;;;;;;24.50;13.80;;;16.90;1.00;;;;;;5056965;28;20170;-83
2023/06/08 06:42:32;;;;;;;21.27;13.20;;;16.80;1.00;;;;;;5053459;28;20204;-85
2023/06/08 06:44:58;;;;;;;22.87;13.70;;;16.80;1.00;;;;;;5054414;28;20256;-83
2023/06/08 06:47:27;;;;;;;21.13;13.87;;;16.80;1.00;;;;;;5023503;28;20676;-85
2023/06/08 06:49:53;;;;;;;18.33;13.53;;;16.80;1.00;;;;;;5029444;28;20594;-85
2023/06/08 06:52:18;;;;;;;18.60;13.90;;;16.80;1.00;;;;;;5055120;28;20204;-83
2023/06/08 06:54:44;;;;;;;19.47;14.60;;;16.80;1.00;;;;;;5074985;28;20197;-83
2023/06/08 06:57:12;;;;;;;22.67;14.70;;;17.00;1.00;;;;;;5066511;28;20185;-82
2023/06/08 06:59:38;;;;;;;22.73;14.07;;;17.10;1.00;;;;;;5063676;28;20196;-82
2023/06/08 07:02:06;;;;;;;22.47;13.97;;;17.00;1.00;;;;;;5064178;28;20181;-85
2023/06/08 07:04:33;;;;;;;19.00;13.87;;;17.10;1.00;;;;;;5060655;28;20175;-84
2023/06/08 07:07:04;;;;;;;22.03;14.33;;;17.00;1.00;;;;;;5061943;28;20175;-83
2023/06/08 07:09:31;;;;;;;21.13;14.40;;;16.90;1.00;;;;;;5046086;28;20180;-85
2023/06/08 07:11:57;;;;;;;22.07;14.37;;;17.00;1.00;;;;;;5066743;28;20256;-85
2023/06/08 07:14:22;;;;;;;20.23;14.30;;;17.20;1.00;;;;;;5064894;28;20675;-84
2023/06/08 07:16:48;;;;;;;19.73;13.87;;;17.30;1.00;;;;;;5062517;28;20177;-85
2023/06/08 07:19:14;;;;;;;24.47;14.30;;;17.30;1.00;;;;;;5063635;28;20169;-85
2023/06/08 07:21:40;;;;;;;21.33;14.97;;;17.50;1.00;;;;;;5063280;28;20189;-84
2023/06/08 07:24:07;;;;;;;20.40;14.30;;;17.50;1.00;;;;;;5065048;28;20227;-80
2023/06/08 07:26:34;;;;;;;21.73;15.20;;;17.40;1.00;;;;;;5079348;28;20305;-82
2023/06/08 07:29:00;;;;;;;24.60;15.23;;;17.40;1.00;;;;;;5078783;28;20152;-79
2023/06/08 07:31:28;;;;;;;25.70;15.17;;;17.60;1.00;;;;;;5073044;28;20175;-82
2023/06/08 07:33:57;;;;;;;20.87;14.33;;;17.70;1.00;;;;;;5072079;28;20192;-80
2023/06/08 07:36:23;;;;;;;21.87;14.33;;;17.80;1.00;;;;;;5071151;28;20158;-84
2023/06/08 07:38:52;;;;;;;18.90;14.90;;;17.80;1.00;;;;;;5066798;28;20182;-82
2023/06/08 07:41:36;;;;;;;24.50;15.03;;;17.90;1.00;;;;;;5066740;28;20306;-83
2023/06/08 07:44:02;;;;;;;23.67;15.03;;;18.10;1.00;;;;;;5069122;28;20223;-82
2023/06/08 07:46:27;;;;;;;21.37;15.63;;;18.00;1.00;;;;;;5049048;28;20197;-83
2023/06/08 07:48:53;;;;;;;19.40;14.33;;;17.90;1.00;;;;;;5066115;28;20520;-85
2023/06/08 07:51:19;;;;;;;23.63;15.10;;;18.10;1.00;;;;;;5064922;28;20149;-84
2023/06/08 07:53:45;;;;;;;21.40;16.30;;;18.20;1.00;;;;;;5067033;28;20169;-82
2023/06/08 07:56:10;;;;;;;24.23;15.40;;;18.10;1.00;;;;;;5063469;28;20188;-81
2023/06/08 07:58:36;;;;;;;24.17;16.43;;;18.20;1.00;;;;;;5062096;28;20195;-85
2023/06/08 08:01:02;;;;;;;19.97;14.63;;;18.30;1.00;;;;;;5063172;28;20176;-84
2023/06/08 08:03:28;;;;;;;18.03;14.37;;;18.40;1.00;;;;;;5062073;28;20218;-81
2023/06/08 08:05:56;;;;;;;20.83;15.07;;;18.60;1.00;;;;;;5061943;28;20703;-83
2023/06/08 08:08:22;;;;;;;21.30;14.60;;;18.80;1.00;;;;;;5062806;28;20161;-81
2023/06/08 08:10:49;;;;;;;21.77;16.20;;;19.00;1.00;;;;;;5063385;28;20171;-82
2023/06/08 08:13:15;;;;;;;22.17;15.53;;;19.00;1.00;;;;;;5068963;28;20179;-82
2023/06/08 08:15:40;;;;;;;23.57;16.33;;;19.10;1.00;;;;;;5069768;28;20649;-84
2023/06/08 08:18:13;;;;;;;19.27;15.40;;;19.10;1.00;;;;;;5069588;28;20201;-82
2023/06/08 08:20:39;;;;;;;21.73;15.33;;;19.20;1.00;;;;;;5078477;28;20182;-81
2023/06/08 08:23:07;;;;;;;21.47;15.27;;;19.00;1.00;;;;;;5078187;28;20222;-80
2023/06/08 08:25:38;;;;;;;23.83;15.83;;;19.10;1.00;;;;;;5077855;28;20166;-82
2023/06/08 08:28:05;;;;;;;21.53;17.40;;;19.20;1.00;;;;;;5070291;28;20194;-81
2023/06/08 08:30:59;;;;;;;20.53;16.23;;;19.40;1.00;;;;;;5047035;28;20691;-80
2023/06/08 08:33:26;;;;;;;21.97;15.33;;;19.50;1.00;;;;;;5064806;28;20186;-85
2023/06/08 08:35:52;;;;;;;26.00;17.43;;;19.50;1.00;;;;;;5067216;28;20255;-84
2023/06/08 08:38:18;;;;;;;20.63;16.40;;;19.50;1.00;;;;;;5068942;28;20175;-83
2023/06/08 08:40:43;;;;;;;23.07;14.87;;;19.60;1.00;;;;;;5068298;28;20176;-83
2023/06/08 08:43:23;;;;;;;24.03;16.17;;;19.80;1.00;;;;;;5068926;28;20265;-81
2023/06/08 08:45:50;;;;;;;19.67;14.37;;;19.70;1.00;;;;;;5069264;28;20176;-83
2023/06/08 08:48:20;;;;;;;21.67;16.00;;;19.70;1.00;;;;;;5051346;28;20206;-82
2023/06/08 08:50:53;;;;;;;22.63;16.13;;;19.90;1.00;;;;;;5068463;28;20179;-84
2023/06/08 08:53:27;;;;;;;23.30;16.47;;;20.00;1.00;;;;;;5050404;28;20173;-83
2023/06/08 08:55:59;;;;;;;24.53;16.30;;;19.90;1.00;;;;;;5069085;28;20209;-86
2023/06/08 08:58:25;;;;;;;23.17;15.13;;;19.90;1.00;;;;;;5068765;28;20173;-83
2023/06/08 09:00:52;;;;;;;22.03;15.07;;;20.00;1.00;;;;;;5070025;28;20177;-85
2023/06/08 09:03:17;;;;;;;23.97;16.67;;;20.00;1.00;;;;;;5070810;28;20213;-84
2023/06/08 09:05:44;;;;;;;25.57;17.50;;;20.00;1.00;;;;;;5069471;28;20169;-83
2023/06/08 09:08:11;;;;;;;26.40;16.57;;;20.10;1.00;;;;;;5066737;28;20171;-84
2023/06/08 09:10:37;;;;;;;27.73;16.83;;;20.20;1.00;;;;;;5053775;28;20193;-83
2023/06/08 09:13:03;;;;;;;21.90;16.13;;;20.30;1.00;;;;;;5069447;28;20199;-85
2023/06/08 09:15:37;;;;;;;23.57;15.40;;;20.40;1.00;;;;;;5069931;28;20178;-84
2023/06/08 09:18:18;;;;;;;23.17;16.00;;;20.50;1.00;;;;;;5068776;28;20165;-84
2023/06/08 09:20:45;;;;;;;24.30;17.70;;;20.40;1.00;;;;;;5070513;28;20181;-84
2023/06/08 09:23:29;;;;;;;22.07;15.97;;;20.30;1.00;;;;;;5051680;28;20295;-85
2023/06/08 09:25:55;;;;;;;26.00;15.87;;;20.30;1.00;;;;;;5070036;28;20257;-83
2023/06/08 09:28:24;;;;;;;21.17;16.33;;;20.50;1.00;;;;;;5070091;28;20168;-85
2023/06/08 09:30:51;;;;;;;21.87;17.80;;;20.60;1.00;;;;;;5069542;28;20167;-87
2023/06/08 09:33:25;;;;;;;23.43;17.10;;;20.50;1.00;;;;;;5071618;28;20176;-84
2023/06/08 09:35:57;;;;;;;21.27;16.07;;;20.50;1.00;;;;;;5045527;28;20174;-87
2023/06/08 09:38:25;;;;;;;23.50;17.87;;;20.60;1.00;;;;;;5043152;28;20632;-82
2023/06/08 09:41:11;;;;;;;23.73;15.77;;;20.70;1.00;;;;;;5067665;28;20515;-82
2023/06/08 09:43:37;;;;;;;22.40;16.87;;;20.90;1.00;;;;;;5065856;28;20288;-86
2023/06/08 09:46:03;;;;;;;22.70;16.37;;;20.90;1.00;;;;;;5063775;28;20173;-82
2023/06/08 09:48:29;;;;;;;22.40;16.00;;;21.10;1.00;;;;;;5059481;28;20687;-85
2023/06/08 09:51:00;;;;;;;22.07;17.33;;;21.20;1.00;;;;;;5057264;28;20174;-86
2023/06/08 09:53:28;;;;;;;23.20;17.47;;;21.30;1.00;;;;;;5058308;28;20633;-81
2023/06/08 09:55:58;;;;;;;24.57;15.87;;;21.50;1.00;;;;;;5056584;28;20239;-85
2023/06/08 09:58:28;;;;;;;19.73;16.27;;;21.50;1.00;;;;;;5056980;28;20172;-83
2023/06/08 10:01:02;;;;;;;24.20;16.63;;;21.30;1.00;;;;;;5056056;28;20199;-84
2023/06/08 10:03:37;;;;;;;22.70;17.23;;;21.30;1.00;;;;;;5056846;28;20288;-83
2023/06/08 10:06:08;;;;;;;20.20;16.33;;;21.30;1.00;;;;;;5039063;28;20215;-84
2023/06/08 10:08:37;;;;;;;23.03;16.17;;;21.40;1.00;;;;;;5056000;28;20227;-82
2023/06/08 10:11:04;;;;;;;23.63;16.40;;;21.30;1.00;;;;;;5038651;28;20243;-84
2023/06/08 10:13:31;;;;;;;22.40;16.67;;;21.40;1.00;;;;;;5056552;28;20208;-84
2023/06/08 10:15:57;;;;;;;26.60;15.57;;;21.60;1.00;;;;;;5038545;28;20193;-85
2023/06/08 10:18:24;;;;;;;22.17;16.13;;;21.70;1.00;;;;;;5055653;28;20256;-86
2023/06/08 10:20:50;;;;;;;22.30;16.40;;;21.70;1.00;;;;;;5054784;28;20177;-83
2023/06/08 10:23:18;;;;;;;20.80;16.60;;;21.60;1.00;;;;;;5057704;28;20686;-86
2023/06/08 10:25:45;;;;;;;23.53;16.37;;;21.60;1.00;;;;;;5056406;28;20165;-85
2023/06/08 10:28:11;;;;;;;21.83;17.27;;;21.70;1.00;;;;;;5055927;28;20210;-83
2023/06/08 10:30:40;;;;;;;25.03;16.07;;;21.80;1.00;;;;;;5058155;28;20180;-85
2023/06/08 10:33:10;;;;;;;27.27;16.50;;;21.90;1.00;;;;;;5063168;28;20592;-85
2023/06/08 10:35:40;;;;;;;22.70;16.33;;;22.10;1.00;;;;;;5061156;28;20694;-84
2023/06/08 10:38:13;;;;;;;18.10;15.27;;;22.30;1.00;;;;;;5065068;28;20177;-83
2023/06/08 10:40:50;;;;;;;22.37;16.40;;;22.40;1.00;;;;;;5063022;28;20179;-86
2023/06/08 10:43:22;;;;;;;22.33;16.53;;;22.50;1.00;;;;;;5041824;28;20210;-84
2023/06/08 10:45:48;;;;;;;22.43;15.53;;;22.30;1.00;;;;;;5056720;28;20172;-85
2023/06/08 10:48:19;;;;;;;20.23;14.93;;;22.20;1.00;;;;;;5041258;28;20170;-83
2023/06/08 10:50:48;;;;;;;19.37;15.20;;;22.50;1.00;;;;;;5062714;28;20627;-84
2023/06/08 10:53:18;;;;;;;20.77;14.67;;;22.60;1.00;;;;;;5065628;28;20203;-84
2023/06/08 10:55:48;;;;;;;19.67;14.40;;;22.60;1.00;;;;;;5051340;28;20258;-86
2023/06/08 10:58:21;;;;;;;18.47;14.70;;;22.70;1.00;;;;;;5066305;28;20324;-81
2023/06/08 11:00:52;;;;;;;18.93;13.07;;;22.70;1.00;;;;;;5067711;28;20195;-85
2023/06/08 11:03:20;;;;;;;18.77;13.97;;;22.90;1.00;;;;;;5072846;28;20200;-86
2023/06/08 11:05:50;;;;;;;22.93;15.73;;;22.70;1.00;;;;;;5067959;28;20647;-82
2023/06/08 11:08:16;;;;;;;16.77;14.97;;;22.60;1.00;;;;;;5067153;28;20179;-85
2023/06/08 11:10:43;;;;;;;19.67;14.27;;;22.70;1.00;;;;;;5064284;28;20235;-86
2023/06/08 11:13:12;;;;;;;16.03;10.50;;;23.00;1.00;;;;;;5066898;28;20186;-84
2023/06/08 11:15:43;;;;;;;15.23;12.30;;;23.10;1.00;;;;;;5058736;28;20297;-83
2023/06/08 11:18:09;;;;;;;19.67;14.00;;;23.10;1.00;;;;;;5061829;28;20177;-82
2023/06/08 11:20:39;;;;;;;15.87;12.40;;;23.10;1.00;;;;;;5062113;28;20251;-85
2023/06/08 11:23:08;;;;;;;17.23;11.87;;;23.30;1.00;;;;;;5059335;28;20212;-85
2023/06/08 11:25:37;;;;;;;19.30;12.13;;;23.50;1.00;;;;;;5062528;28;20169;-84
2023/06/08 11:28:04;;;;;;;14.33;11.60;;;23.50;1.00;;;;;;5061858;28;20549;-85
2023/06/08 11:30:33;;;;;;;15.53;11.43;;;23.60;1.00;;;;;;5066276;28;20173;-84
2023/06/08 11:33:00;;;;;;;18.87;14.67;;;23.60;1.00;;;;;;5062952;28;20173;-85
2023/06/08 11:35:26;;;;;;;15.40;11.07;;;23.80;1.00;;;;;;5062926;28;20659;-86
2023/06/08 11:37:59;;;;;;;11.90;9.80;;;24.00;1.00;;;;;;5071642;28;20177;-85
2023/06/08 11:40:25;;;;;;;14.13;10.23;;;24.10;99.90;;;;;;5059499;28;20177;-82
2023/06/08 11:42:51;;;;;;;12.73;8.73;;;23.90;99.90;;;;;;5051930;28;20624;-84
2023/06/08 11:45:18;;;;;;;14.17;9.93;;;23.90;99.90;;;;;;5049963;28;20158;-84
2023/06/08 11:47:44;;;;;;;16.23;10.60;;;24.00;99.90;;;;;;5046482;28;20622;-84
2023/06/08 11:50:14;;;;;;;17.07;11.23;;;24.20;99.90;;;;;;5045464;28;20198;-84
2023/06/08 11:52:46;;;;;;;15.53;9.93;;;24.20;99.90;;;;;;5045832;28;20200;-81
2023/06/08 11:55:15;;;;;;;13.70;9.97;;;24.20;99.90;;;;;;5045913;28;20168;-84
2023/06/08 11:57:44;;;;;;;12.03;9.30;;;24.10;99.90;;;;;;5065871;28;20161;-86
2023/06/08 12:00:31;;;;;;;15.03;10.30;;;24.20;99.90;;;;;;5069276;28;20193;-84
2023/06/08 12:02:58;;;;;;;14.50;9.27;;;24.20;99.90;;;;;;5066861;28;20200;-84
2023/06/08 12:05:33;;;;;;;13.47;10.63;;;24.20;99.90;;;;;;5050786;28;20544;-83
2023/06/08 12:08:03;;;;;;;12.73;9.60;;;24.30;99.90;;;;;;5066708;28;20255;-86
2023/06/08 12:10:39;;;;;;;12.77;9.43;;;24.50;99.90;;;;;;5079019;28;20181;-80
2023/06/08 12:13:13;;;;;;;14.00;8.97;;;24.40;99.90;;;;;;5079265;28;20195;-81
2023/06/08 12:15:53;;;;;;;15.53;9.37;;;24.60;99.90;;;;;;5062029;28;20198;-79
2023/06/08 12:18:21;;;;;;;12.57;8.53;;;24.70;99.90;;;;;;5078790;28;20168;-83
2023/06/08 12:20:51;;;;;;;13.17;8.43;;;24.70;99.90;;;;;;5077137;28;20173;-82
2023/06/08 12:23:23;;;;;;;14.50;8.97;;;25.00;99.90;;;;;;5073062;28;20239;-84
2023/06/08 12:25:56;;;;;;;15.37;8.57;;;24.80;99.90;;;;;;5072201;28;20184;-86
2023/06/08 12:28:33;;;;;;;12.00;8.80;;;24.70;99.90;;;;;;5073410;28;20161;-85
2023/06/08 12:31:00;;;;;;;11.83;7.60;;;24.60;99.90;;;;;;5070140;28;20271;-84
2023/06/08 12:33:27;;;;;;;11.70;8.90;;;24.80;99.90;;;;;;5055753;28;20287;-84
2023/06/08 12:35:54;;;;;;;13.30;7.47;;;25.00;99.90;;;;;;5068174;28;20169;-86
2023/06/08 12:38:21;;;;;;;11.97;7.10;;;24.90;99.90;;;;;;5072073;28;20181;-83
2023/06/08 12:40:52;;;;;;;9.93;6.67;;;24.80;99.90;;;;;;5043739;28;20240;-85